sensor_id;sensor_type;location;lat;lon;timestamp;P1;durP1;ratioP1;P2;durP2;ratioP2
61104;SDS011;46987;32.638;-115.438;2023-06-10T00:00:08;10.85;;;3.55;;
61104;SDS011;46987;32.638;-115.438;2023-06-10T00:02:38;7.10;;;2.60;;
61104;SDS011;46987;32.638;-115.438;2023-06-10T00:05:05;11.63;;;2.63;;
61104;SDS011;46987;32.638;-115.438;2023-06-10T00:07:32;8.80;;;2.63;;
61104;SDS011;46987;32.638;-115.438;2023-06-10T00:09:58;11.25;;;3.20;;
61104;SDS011;46987;32.638;-115.438;2023-06-10T00:12:27;11.38;;;2.80;;
61104;SDS011;46987;32.638;-115.438;2023-06-10T00:14:55;13.02;;;2.83;;
61104;SDS011;46987;32.638;-115.438;2023-06-10T00:17:21;10.60;;;2.65;;
61104;SDS011;46987;32.638;-115.438;2023-06-10T00:19:48;7.45;;;2.53;;
61104;SDS011;46987;32.638;-115.438;2023-06-10T00:22:16;6.45;;;1.80;;
61104;SDS011;46987;32.638;-115.438;2023-06-10T00:24:43;6.40;;;2.13;;
61104;SDS011;46987;32.638;-115.438;2023-06-10T00:27:10;9.68;;;3.35;;
61104;SDS011;46987;32.638;-115.438;2023-06-10T00:29:38;8.52;;;2.50;;
61104;SDS011;46987;32.638;-115.438;2023-06-10T00:32:05;10.07;;;2.30;;
61104;SDS011;46987;32.638;-115.438;2023-06-10T00:34:34;116.30;;;13.27;;
61104;SDS011;46987;32.638;-115.438;2023-06-10T00:37:01;25.73;;;3.72;;
61104;SDS011;46987;32.638;-115.438;2023-06-10T00:39:28;8.05;;;2.28;;
61104;SDS011;46987;32.638;-115.438;2023-06-10T00:41:56;7.18;;;1.83;;
61104;SDS011;46987;32.638;-115.438;2023-06-10T00:44:22;10.25;;;2.33;;
61104;SDS011;46987;32.638;-115.438;2023-06-10T00:46:51;9.63;;;2.75;;
61104;SDS011;46987;32.638;-115.438;2023-06-10T00:49:19;9.38;;;2.28;;
61104;SDS011;46987;32.638;-115.438;2023-06-10T00:51:46;10.60;;;1.92;;
61104;SDS011;46987;32.638;-115.438;2023-06-10T00:54:14;9.07;;;2.08;;
61104;SDS011;46987;32.638;-115.438;2023-06-10T00:56:41;8.95;;;2.17;;
61104;SDS011;46987;32.638;-115.438;2023-06-10T00:59:09;7.70;;;2.53;;
61104;SDS011;46987;32.638;-115.438;2023-06-10T01:01:35;8.75;;;1.80;;
61104;SDS011;46987;32.638;-115.438;2023-06-10T01:04:05;6.68;;;2.03;;
61104;SDS011;46987;32.638;-115.438;2023-06-10T01:06:33;7.93;;;2.08;;
61104;SDS011;46987;32.638;-115.438;2023-06-10T01:09:06;8.57;;;2.30;;
61104;SDS011;46987;32.638;-115.438;2023-06-10T01:11:36;7.30;;;1.95;;
61104;SDS011;46987;32.638;-115.438;2023-06-10T01:14:07;9.13;;;2.08;;
61104;SDS011;46987;32.638;-115.438;2023-06-10T01:16:34;12.52;;;2.83;;
61104;SDS011;46987;32.638;-115.438;2023-06-10T01:19:03;8.60;;;2.13;;
61104;SDS011;46987;32.638;-115.438;2023-06-10T01:21:31;9.10;;;2.00;;
61104;SDS011;46987;32.638;-115.438;2023-06-10T01:24:01;9.43;;;2.67;;
61104;SDS011;46987;32.638;-115.438;2023-06-10T01:26:28;9.77;;;1.92;;
61104;SDS011;46987;32.638;-115.438;2023-06-10T01:28:58;8.80;;;2.15;;
61104;SDS011;46987;32.638;-115.438;2023-06-10T01:31:29;8.10;;;2.13;;
61104;SDS011;46987;32.638;-115.438;2023-06-10T01:34:00;14.18;;;2.63;;
61104;SDS011;46987;32.638;-115.438;2023-06-10T01:36:28;9.18;;;2.63;;
61104;SDS011;46987;32.638;-115.438;2023-06-10T01:38:56;7.70;;;2.03;;
61104;SDS011;46987;32.638;-115.438;2023-06-10T01:41:26;13.30;;;2.08;;
61104;SDS011;46987;32.638;-115.438;2023-06-10T01:43:53;11.25;;;2.53;;
61104;SDS011;46987;32.638;-115.438;2023-06-10T01:46:20;9.50;;;2.33;;
61104;SDS011;46987;32.638;-115.438;2023-06-10T01:48:48;13.20;;;2.33;;
61104;SDS011;46987;32.638;-115.438;2023-06-10T01:51:15;8.75;;;2.85;;
61104;SDS011;46987;32.638;-115.438;2023-06-10T01:53:42;7.25;;;2.40;;
61104;SDS011;46987;32.638;-115.438;2023-06-10T01:56:11;9.35;;;2.00;;
61104;SDS011;46987;32.638;-115.438;2023-06-10T01:58:44;6.85;;;2.00;;
61104;SDS011;46987;32.638;-115.438;2023-06-10T02:01:11;11.88;;;2.47;;
61104;SDS011;46987;32.638;-115.438;2023-06-10T02:03:38;7.63;;;2.10;;
61104;SDS011;46987;32.638;-115.438;2023-06-10T02:06:04;9.50;;;2.38;;
61104;SDS011;46987;32.638;-115.438;2023-06-10T02:08:32;9.65;;;2.55;;
61104;SDS011;46987;32.638;-115.438;2023-06-10T02:11:00;8.38;;;2.08;;
61104;SDS011;46987;32.638;-115.438;2023-06-10T02:13:30;9.63;;;2.85;;
61104;SDS011;46987;32.638;-115.438;2023-06-10T02:15:57;11.63;;;2.00;;
61104;SDS011;46987;32.638;-115.438;2023-06-10T02:18:28;10.40;;;2.03;;
61104;SDS011;46987;32.638;-115.438;2023-06-10T02:20:55;13.63;;;3.03;;
61104;SDS011;46987;32.638;-115.438;2023-06-10T02:23:22;12.27;;;3.00;;
61104;SDS011;46987;32.638;-115.438;2023-06-10T02:25:48;13.50;;;2.85;;
61104;SDS011;46987;32.638;-115.438;2023-06-10T02:28:15;8.85;;;2.22;;
61104;SDS011;46987;32.638;-115.438;2023-06-10T02:30:43;12.80;;;2.45;;
61104;SDS011;46987;32.638;-115.438;2023-06-10T02:33:11;10.65;;;2.47;;
61104;SDS011;46987;32.638;-115.438;2023-06-10T02:35:38;11.95;;;1.98;;
61104;SDS011;46987;32.638;-115.438;2023-06-10T02:38:05;7.97;;;1.80;;
61104;SDS011;46987;32.638;-115.438;2023-06-10T02:40:33;7.18;;;2.20;;
61104;SDS011;46987;32.638;-115.438;2023-06-10T02:43:00;13.70;;;2.40;;
61104;SDS011;46987;32.638;-115.438;2023-06-10T02:45:27;9.77;;;2.22;;
61104;SDS011;46987;32.638;-115.438;2023-06-10T02:47:58;10.75;;;2.53;;
61104;SDS011;46987;32.638;-115.438;2023-06-10T02:50:24;13.35;;;2.75;;
61104;SDS011;46987;32.638;-115.438;2023-06-10T02:53:00;12.32;;;2.92;;
61104;SDS011;46987;32.638;-115.438;2023-06-10T02:55:26;9.20;;;2.97;;
61104;SDS011;46987;32.638;-115.438;2023-06-10T02:57:59;11.57;;;3.25;;
61104;SDS011;46987;32.638;-115.438;2023-06-10T03:00:27;10.13;;;2.90;;
61104;SDS011;46987;32.638;-115.438;2023-06-10T03:02:54;12.57;;;3.20;;
61104;SDS011;46987;32.638;-115.438;2023-06-10T03:05:29;9.63;;;3.15;;
61104;SDS011;46987;32.638;-115.438;2023-06-10T03:07:58;10.70;;;2.85;;
61104;SDS011;46987;32.638;-115.438;2023-06-10T03:10:25;9.27;;;2.42;;
61104;SDS011;46987;32.638;-115.438;2023-06-10T03:12:53;13.30;;;3.03;;
61104;SDS011;46987;32.638;-115.438;2023-06-10T03:15:20;13.13;;;2.47;;
61104;SDS011;46987;32.638;-115.438;2023-06-10T03:17:48;12.65;;;2.63;;
61104;SDS011;46987;32.638;-115.438;2023-06-10T03:20:15;11.15;;;2.47;;
61104;SDS011;46987;32.638;-115.438;2023-06-10T03:22:45;13.23;;;2.80;;
61104;SDS011;46987;32.638;-115.438;2023-06-10T03:25:12;15.95;;;3.00;;
61104;SDS011;46987;32.638;-115.438;2023-06-10T03:27:42;10.82;;;3.72;;
61104;SDS011;46987;32.638;-115.438;2023-06-10T03:30:10;14.35;;;3.58;;
61104;SDS011;46987;32.638;-115.438;2023-06-10T03:32:39;13.90;;;3.53;;
61104;SDS011;46987;32.638;-115.438;2023-06-10T03:35:08;13.88;;;3.35;;
61104;SDS011;46987;32.638;-115.438;2023-06-10T03:37:36;10.10;;;2.90;;
61104;SDS011;46987;32.638;-115.438;2023-06-10T03:40:07;11.95;;;2.97;;
61104;SDS011;46987;32.638;-115.438;2023-06-10T03:42:37;10.70;;;2.95;;
61104;SDS011;46987;32.638;-115.438;2023-06-10T03:45:05;10.00;;;3.15;;
61104;SDS011;46987;32.638;-115.438;2023-06-10T03:47:34;11.07;;;2.20;;
61104;SDS011;46987;32.638;-115.438;2023-06-10T03:50:04;14.60;;;3.80;;
61104;SDS011;46987;32.638;-115.438;2023-06-10T03:52:31;9.35;;;2.80;;
61104;SDS011;46987;32.638;-115.438;2023-06-10T03:54:59;11.15;;;3.17;;
61104;SDS011;46987;32.638;-115.438;2023-06-10T03:57:28;9.52;;;3.08;;
61104;SDS011;46987;32.638;-115.438;2023-06-10T03:59:54;6.53;;;3.22;;
61104;SDS011;46987;32.638;-115.438;2023-06-10T04:02:25;15.05;;;3.13;;
61104;SDS011;46987;32.638;-115.438;2023-06-10T04:04:53;13.60;;;4.00;;
61104;SDS011;46987;32.638;-115.438;2023-06-10T04:07:20;9.32;;;3.40;;
61104;SDS011;46987;32.638;-115.438;2023-06-10T04:09:47;9.25;;;2.65;;
61104;SDS011;46987;32.638;-115.438;2023-06-10T04:12:14;12.48;;;2.55;;
61104;SDS011;46987;32.638;-115.438;2023-06-10T04:14:43;13.13;;;3.60;;
61104;SDS011;46987;32.638;-115.438;2023-06-10T04:17:11;13.07;;;3.92;;
61104;SDS011;46987;32.638;-115.438;2023-06-10T04:19:38;10.15;;;3.03;;
61104;SDS011;46987;32.638;-115.438;2023-06-10T04:22:06;9.27;;;3.08;;
61104;SDS011;46987;32.638;-115.438;2023-06-10T04:24:33;10.60;;;3.20;;
61104;SDS011;46987;32.638;-115.438;2023-06-10T04:27:00;14.40;;;3.28;;
61104;SDS011;46987;32.638;-115.438;2023-06-10T04:29:28;9.50;;;2.80;;
61104;SDS011;46987;32.638;-115.438;2023-06-10T04:31:57;10.43;;;2.92;;
61104;SDS011;46987;32.638;-115.438;2023-06-10T04:34:24;10.43;;;2.80;;
61104;SDS011;46987;32.638;-115.438;2023-06-10T04:36:52;12.55;;;3.78;;
61104;SDS011;46987;32.638;-115.438;2023-06-10T04:39:22;12.38;;;3.72;;
61104;SDS011;46987;32.638;-115.438;2023-06-10T04:41:49;12.55;;;4.05;;
61104;SDS011;46987;32.638;-115.438;2023-06-10T04:44:16;9.45;;;3.95;;
61104;SDS011;46987;32.638;-115.438;2023-06-10T04:46:43;12.93;;;4.05;;
61104;SDS011;46987;32.638;-115.438;2023-06-10T04:49:11;15.82;;;4.00;;
61104;SDS011;46987;32.638;-115.438;2023-06-10T04:51:41;12.88;;;3.83;;
61104;SDS011;46987;32.638;-115.438;2023-06-10T04:54:08;13.65;;;4.63;;
61104;SDS011;46987;32.638;-115.438;2023-06-10T04:56:35;18.77;;;4.05;;
61104;SDS011;46987;32.638;-115.438;2023-06-10T04:59:05;15.48;;;3.70;;
61104;SDS011;46987;32.638;-115.438;2023-06-10T05:01:32;11.75;;;2.92;;
61104;SDS011;46987;32.638;-115.438;2023-06-10T05:04:02;10.02;;;2.38;;
61104;SDS011;46987;32.638;-115.438;2023-06-10T05:06:34;17.42;;;2.72;;
61104;SDS011;46987;32.638;-115.438;2023-06-10T05:09:05;8.75;;;2.10;;
61104;SDS011;46987;32.638;-115.438;2023-06-10T05:11:31;8.50;;;2.60;;
61104;SDS011;46987;32.638;-115.438;2023-06-10T05:13:58;7.10;;;2.50;;
61104;SDS011;46987;32.638;-115.438;2023-06-10T05:16:25;8.20;;;2.78;;
61104;SDS011;46987;32.638;-115.438;2023-06-10T05:18:52;9.65;;;2.38;;
61104;SDS011;46987;32.638;-115.438;2023-06-10T05:21:18;8.43;;;2.50;;
61104;SDS011;46987;32.638;-115.438;2023-06-10T05:23:47;8.15;;;2.58;;
61104;SDS011;46987;32.638;-115.438;2023-06-10T05:26:14;8.68;;;1.90;;
61104;SDS011;46987;32.638;-115.438;2023-06-10T05:28:40;18.83;;;10.32;;
61104;SDS011;46987;32.638;-115.438;2023-06-10T05:31:07;8.75;;;4.07;;
61104;SDS011;46987;32.638;-115.438;2023-06-10T05:33:34;7.57;;;3.45;;
61104;SDS011;46987;32.638;-115.438;2023-06-10T05:36:01;14.27;;;3.10;;
61104;SDS011;46987;32.638;-115.438;2023-06-10T05:38:28;6.35;;;2.72;;
61104;SDS011;46987;32.638;-115.438;2023-06-10T05:40:58;7.28;;;2.85;;
61104;SDS011;46987;32.638;-115.438;2023-06-10T05:43:25;6.20;;;2.55;;
61104;SDS011;46987;32.638;-115.438;2023-06-10T05:45:51;7.97;;;2.63;;
61104;SDS011;46987;32.638;-115.438;2023-06-10T05:48:18;9.30;;;3.00;;
61104;SDS011;46987;32.638;-115.438;2023-06-10T05:50:45;15.10;;;3.28;;
61104;SDS011;46987;32.638;-115.438;2023-06-10T05:53:14;14.57;;;3.95;;
61104;SDS011;46987;32.638;-115.438;2023-06-10T05:55:41;15.80;;;4.10;;
61104;SDS011;46987;32.638;-115.438;2023-06-10T05:58:09;13.75;;;3.10;;
61104;SDS011;46987;32.638;-115.438;2023-06-10T06:00:36;12.45;;;4.00;;
61104;SDS011;46987;32.638;-115.438;2023-06-10T06:03:02;9.23;;;3.92;;
61104;SDS011;46987;32.638;-115.438;2023-06-10T06:05:29;12.82;;;3.78;;
61104;SDS011;46987;32.638;-115.438;2023-06-10T06:08:00;14.77;;;4.32;;
61104;SDS011;46987;32.638;-115.438;2023-06-10T06:10:27;14.90;;;4.40;;
61104;SDS011;46987;32.638;-115.438;2023-06-10T06:12:54;13.95;;;4.20;;
61104;SDS011;46987;32.638;-115.438;2023-06-10T06:15:22;13.80;;;4.25;;
61104;SDS011;46987;32.638;-115.438;2023-06-10T06:17:49;11.20;;;3.50;;
61104;SDS011;46987;32.638;-115.438;2023-06-10T06:20:18;10.85;;;3.20;;
61104;SDS011;46987;32.638;-115.438;2023-06-10T06:22:45;10.45;;;3.28;;
61104;SDS011;46987;32.638;-115.438;2023-06-10T06:25:11;11.23;;;3.35;;
61104;SDS011;46987;32.638;-115.438;2023-06-10T06:27:38;10.73;;;2.83;;
61104;SDS011;46987;32.638;-115.438;2023-06-10T06:30:05;14.52;;;4.40;;
61104;SDS011;46987;32.638;-115.438;2023-06-10T06:32:33;16.27;;;5.03;;
61104;SDS011;46987;32.638;-115.438;2023-06-10T06:35:00;15.50;;;4.30;;
61104;SDS011;46987;32.638;-115.438;2023-06-10T06:37:26;11.18;;;4.63;;
61104;SDS011;46987;32.638;-115.438;2023-06-10T06:40:12;13.48;;;4.68;;
61104;SDS011;46987;32.638;-115.438;2023-06-10T06:42:38;17.40;;;3.85;;
61104;SDS011;46987;32.638;-115.438;2023-06-10T06:45:34;11.88;;;3.83;;
61104;SDS011;46987;32.638;-115.438;2023-06-10T06:48:03;11.43;;;3.75;;
61104;SDS011;46987;32.638;-115.438;2023-06-10T06:50:30;15.30;;;3.70;;
61104;SDS011;46987;32.638;-115.438;2023-06-10T06:52:56;10.23;;;3.45;;
61104;SDS011;46987;32.638;-115.438;2023-06-10T06:55:23;6.43;;;3.10;;
61104;SDS011;46987;32.638;-115.438;2023-06-10T06:57:50;11.02;;;3.70;;
61104;SDS011;46987;32.638;-115.438;2023-06-10T07:00:17;9.93;;;3.55;;
61104;SDS011;46987;32.638;-115.438;2023-06-10T07:02:44;7.18;;;3.20;;
61104;SDS011;46987;32.638;-115.438;2023-06-10T07:05:13;11.20;;;3.10;;
61104;SDS011;46987;32.638;-115.438;2023-06-10T07:07:40;9.77;;;3.25;;
61104;SDS011;46987;32.638;-115.438;2023-06-10T07:10:07;15.77;;;3.85;;
61104;SDS011;46987;32.638;-115.438;2023-06-10T07:12:34;17.17;;;4.45;;
61104;SDS011;46987;32.638;-115.438;2023-06-10T07:15:01;13.52;;;3.17;;
61104;SDS011;46987;32.638;-115.438;2023-06-10T07:17:27;11.85;;;2.88;;
61104;SDS011;46987;32.638;-115.438;2023-06-10T07:19:54;14.40;;;3.10;;
61104;SDS011;46987;32.638;-115.438;2023-06-10T07:22:25;16.73;;;4.05;;
61104;SDS011;46987;32.638;-115.438;2023-06-10T07:24:52;10.80;;;3.33;;
61104;SDS011;46987;32.638;-115.438;2023-06-10T07:27:20;13.82;;;3.70;;
61104;SDS011;46987;32.638;-115.438;2023-06-10T07:29:47;10.40;;;3.20;;
61104;SDS011;46987;32.638;-115.438;2023-06-10T07:32:13;10.88;;;2.83;;
61104;SDS011;46987;32.638;-115.438;2023-06-10T07:34:40;8.65;;;3.25;;
61104;SDS011;46987;32.638;-115.438;2023-06-10T07:37:07;7.82;;;3.50;;
61104;SDS011;46987;32.638;-115.438;2023-06-10T07:39:36;13.95;;;4.00;;
61104;SDS011;46987;32.638;-115.438;2023-06-10T07:42:03;16.25;;;4.35;;
61104;SDS011;46987;32.638;-115.438;2023-06-10T07:44:30;12.50;;;3.47;;
61104;SDS011;46987;32.638;-115.438;2023-06-10T07:46:56;21.73;;;4.57;;
61104;SDS011;46987;32.638;-115.438;2023-06-10T07:49:24;16.23;;;4.53;;
61104;SDS011;46987;32.638;-115.438;2023-06-10T07:51:51;16.95;;;4.28;;
61104;SDS011;46987;32.638;-115.438;2023-06-10T07:54:18;16.00;;;4.88;;
61104;SDS011;46987;32.638;-115.438;2023-06-10T07:56:48;18.38;;;3.97;;
61104;SDS011;46987;32.638;-115.438;2023-06-10T07:59:15;17.02;;;4.00;;
61104;SDS011;46987;32.638;-115.438;2023-06-10T08:01:42;16.52;;;4.45;;
61104;SDS011;46987;32.638;-115.438;2023-06-10T08:04:09;11.98;;;3.45;;
61104;SDS011;46987;32.638;-115.438;2023-06-10T08:06:35;11.60;;;3.72;;
61104;SDS011;46987;32.638;-115.438;2023-06-10T08:09:02;11.52;;;4.47;;
61104;SDS011;46987;32.638;-115.438;2023-06-10T08:11:29;15.63;;;4.68;;
61104;SDS011;46987;32.638;-115.438;2023-06-10T08:13:58;11.95;;;4.70;;
61104;SDS011;46987;32.638;-115.438;2023-06-10T08:16:25;15.93;;;4.60;;
61104;SDS011;46987;32.638;-115.438;2023-06-10T08:18:52;17.00;;;5.22;;
61104;SDS011;46987;32.638;-115.438;2023-06-10T08:21:19;14.68;;;5.22;;
61104;SDS011;46987;32.638;-115.438;2023-06-10T08:23:46;16.30;;;5.00;;
61104;SDS011;46987;32.638;-115.438;2023-06-10T08:26:13;10.80;;;5.03;;
61104;SDS011;46987;32.638;-115.438;2023-06-10T08:28:40;11.15;;;4.63;;
61104;SDS011;46987;32.638;-115.438;2023-06-10T08:31:09;12.95;;;5.30;;
61104;SDS011;46987;32.638;-115.438;2023-06-10T08:33:36;14.00;;;5.53;;
61104;SDS011;46987;32.638;-115.438;2023-06-10T08:36:02;15.23;;;5.70;;
61104;SDS011;46987;32.638;-115.438;2023-06-10T08:38:29;15.07;;;5.68;;
61104;SDS011;46987;32.638;-115.438;2023-06-10T08:40:56;15.82;;;6.55;;
61104;SDS011;46987;32.638;-115.438;2023-06-10T08:43:25;17.52;;;6.47;;
61104;SDS011;46987;32.638;-115.438;2023-06-10T08:45:54;22.52;;;7.05;;
61104;SDS011;46987;32.638;-115.438;2023-06-10T08:48:24;14.73;;;6.80;;
61104;SDS011;46987;32.638;-115.438;2023-06-10T08:50:53;22.15;;;7.18;;
61104;SDS011;46987;32.638;-115.438;2023-06-10T08:53:20;18.73;;;8.10;;
61104;SDS011;46987;32.638;-115.438;2023-06-10T08:55:49;16.58;;;6.60;;
61104;SDS011;46987;32.638;-115.438;2023-06-10T08:58:17;15.38;;;6.60;;
61104;SDS011;46987;32.638;-115.438;2023-06-10T09:00:45;11.70;;;5.22;;
61104;SDS011;46987;32.638;-115.438;2023-06-10T09:03:12;17.60;;;5.07;;
61104;SDS011;46987;32.638;-115.438;2023-06-10T09:05:42;12.88;;;4.45;;
61104;SDS011;46987;32.638;-115.438;2023-06-10T09:08:09;11.48;;;3.58;;
61104;SDS011;46987;32.638;-115.438;2023-06-10T09:10:36;12.25;;;4.10;;
61104;SDS011;46987;32.638;-115.438;2023-06-10T09:13:02;12.13;;;4.15;;
61104;SDS011;46987;32.638;-115.438;2023-06-10T09:15:29;15.43;;;4.10;;
61104;SDS011;46987;32.638;-115.438;2023-06-10T09:17:56;11.23;;;4.30;;
61104;SDS011;46987;32.638;-115.438;2023-06-10T09:20:22;14.63;;;4.75;;
61104;SDS011;46987;32.638;-115.438;2023-06-10T09:22:51;14.93;;;5.03;;
61104;SDS011;46987;32.638;-115.438;2023-06-10T09:25:17;17.33;;;5.30;;
61104;SDS011;46987;32.638;-115.438;2023-06-10T09:27:45;18.42;;;5.20;;
61104;SDS011;46987;32.638;-115.438;2023-06-10T09:30:25;13.00;;;5.00;;
61104;SDS011;46987;32.638;-115.438;2023-06-10T09:32:53;13.77;;;4.57;;
61104;SDS011;46987;32.638;-115.438;2023-06-10T09:35:22;14.68;;;4.65;;
61104;SDS011;46987;32.638;-115.438;2023-06-10T09:37:51;13.38;;;4.35;;
61104;SDS011;46987;32.638;-115.438;2023-06-10T09:40:18;9.82;;;3.45;;
61104;SDS011;46987;32.638;-115.438;2023-06-10T09:42:45;11.93;;;3.90;;
61104;SDS011;46987;32.638;-115.438;2023-06-10T09:45:11;9.82;;;4.05;;
61104;SDS011;46987;32.638;-115.438;2023-06-10T09:47:38;10.20;;;4.03;;
61104;SDS011;46987;32.638;-115.438;2023-06-10T09:50:05;10.93;;;4.18;;
61104;SDS011;46987;32.638;-115.438;2023-06-10T09:52:31;16.40;;;4.97;;
61104;SDS011;46987;32.638;-115.438;2023-06-10T09:55:03;13.18;;;4.65;;
61104;SDS011;46987;32.638;-115.438;2023-06-10T09:57:30;9.65;;;4.88;;
61104;SDS011;46987;32.638;-115.438;2023-06-10T10:00:04;16.83;;;5.97;;
61104;SDS011;46987;32.638;-115.438;2023-06-10T10:02:44;13.77;;;5.68;;
61104;SDS011;46987;32.638;-115.438;2023-06-10T10:05:11;16.08;;;6.20;;
61104;SDS011;46987;32.638;-115.438;2023-06-10T10:07:38;22.38;;;7.93;;
61104;SDS011;46987;32.638;-115.438;2023-06-10T10:10:07;17.15;;;7.85;;
61104;SDS011;46987;32.638;-115.438;2023-06-10T10:12:35;14.45;;;7.63;;
61104;SDS011;46987;32.638;-115.438;2023-06-10T10:15:01;12.25;;;6.22;;
61104;SDS011;46987;32.638;-115.438;2023-06-10T10:17:28;11.60;;;5.72;;
61104;SDS011;46987;32.638;-115.438;2023-06-10T10:19:57;12.05;;;5.05;;
61104;SDS011;46987;32.638;-115.438;2023-06-10T10:22:24;13.23;;;4.70;;
61104;SDS011;46987;32.638;-115.438;2023-06-10T10:24:52;10.45;;;5.00;;
61104;SDS011;46987;32.638;-115.438;2023-06-10T10:27:24;11.38;;;4.88;;
61104;SDS011;46987;32.638;-115.438;2023-06-10T10:29:53;10.13;;;4.05;;
61104;SDS011;46987;32.638;-115.438;2023-06-10T10:32:20;11.90;;;4.72;;
61104;SDS011;46987;32.638;-115.438;2023-06-10T10:34:50;14.10;;;6.55;;
61104;SDS011;46987;32.638;-115.438;2023-06-10T10:37:18;13.45;;;6.35;;
61104;SDS011;46987;32.638;-115.438;2023-06-10T10:39:45;12.38;;;5.80;;
61104;SDS011;46987;32.638;-115.438;2023-06-10T10:42:11;12.30;;;5.20;;
61104;SDS011;46987;32.638;-115.438;2023-06-10T10:44:40;15.93;;;5.45;;
61104;SDS011;46987;32.638;-115.438;2023-06-10T10:47:07;12.27;;;4.72;;
61104;SDS011;46987;32.638;-115.438;2023-06-10T10:49:35;11.02;;;3.90;;
61104;SDS011;46987;32.638;-115.438;2023-06-10T10:52:03;9.07;;;3.72;;
61104;SDS011;46987;32.638;-115.438;2023-06-10T10:54:33;13.00;;;4.40;;
61104;SDS011;46987;32.638;-115.438;2023-06-10T10:57:13;12.05;;;3.90;;
61104;SDS011;46987;32.638;-115.438;2023-06-10T10:59:45;14.57;;;4.20;;
61104;SDS011;46987;32.638;-115.438;2023-06-10T11:02:15;12.07;;;3.78;;
61104;SDS011;46987;32.638;-115.438;2023-06-10T11:04:44;11.77;;;4.00;;
61104;SDS011;46987;32.638;-115.438;2023-06-10T11:07:11;15.52;;;4.47;;
61104;SDS011;46987;32.638;-115.438;2023-06-10T11:09:56;7.97;;;3.47;;
61104;SDS011;46987;32.638;-115.438;2023-06-10T11:12:23;8.05;;;2.67;;
61104;SDS011;46987;32.638;-115.438;2023-06-10T11:14:55;10.35;;;3.00;;
61104;SDS011;46987;32.638;-115.438;2023-06-10T11:17:22;8.90;;;3.03;;
61104;SDS011;46987;32.638;-115.438;2023-06-10T11:19:49;11.75;;;3.50;;
61104;SDS011;46987;32.638;-115.438;2023-06-10T11:22:16;7.47;;;2.88;;
61104;SDS011;46987;32.638;-115.438;2023-06-10T11:24:47;8.43;;;3.25;;
61104;SDS011;46987;32.638;-115.438;2023-06-10T11:27:17;10.30;;;3.00;;
61104;SDS011;46987;32.638;-115.438;2023-06-10T11:32:33;8.38;;;2.38;;
61104;SDS011;46987;32.638;-115.438;2023-06-10T11:35:00;6.65;;;2.65;;
61104;SDS011;46987;32.638;-115.438;2023-06-10T11:37:29;8.82;;;2.67;;
61104;SDS011;46987;32.638;-115.438;2023-06-10T11:39:55;10.93;;;3.00;;
61104;SDS011;46987;32.638;-115.438;2023-06-10T11:42:22;8.75;;;2.88;;
61104;SDS011;46987;32.638;-115.438;2023-06-10T11:44:49;11.75;;;3.20;;
61104;SDS011;46987;32.638;-115.438;2023-06-10T11:47:16;8.35;;;2.92;;
61104;SDS011;46987;32.638;-115.438;2023-06-10T11:49:45;11.55;;;2.78;;
61104;SDS011;46987;32.638;-115.438;2023-06-10T11:52:12;10.68;;;2.83;;
61104;SDS011;46987;32.638;-115.438;2023-06-10T11:54:38;7.65;;;2.80;;
61104;SDS011;46987;32.638;-115.438;2023-06-10T11:57:05;7.47;;;2.67;;
61104;SDS011;46987;32.638;-115.438;2023-06-10T11:59:34;7.28;;;3.00;;
61104;SDS011;46987;32.638;-115.438;2023-06-10T12:02:00;6.82;;;2.42;;
61104;SDS011;46987;32.638;-115.438;2023-06-10T12:04:27;10.77;;;3.08;;
61104;SDS011;46987;32.638;-115.438;2023-06-10T12:06:55;9.23;;;2.60;;
61104;SDS011;46987;32.638;-115.438;2023-06-10T12:09:22;6.88;;;2.80;;
61104;SDS011;46987;32.638;-115.438;2023-06-10T12:11:50;7.70;;;2.58;;
61104;SDS011;46987;32.638;-115.438;2023-06-10T12:16:58;8.90;;;2.45;;
61104;SDS011;46987;32.638;-115.438;2023-06-10T12:19:25;8.32;;;2.40;;
61104;SDS011;46987;32.638;-115.438;2023-06-10T12:21:52;11.40;;;3.60;;
61104;SDS011;46987;32.638;-115.438;2023-06-10T12:24:21;9.50;;;3.50;;
61104;SDS011;46987;32.638;-115.438;2023-06-10T12:26:47;9.95;;;3.33;;
61104;SDS011;46987;32.638;-115.438;2023-06-10T12:29:20;11.02;;;3.30;;
61104;SDS011;46987;32.638;-115.438;2023-06-10T12:31:56;11.95;;;3.35;;
61104;SDS011;46987;32.638;-115.438;2023-06-10T12:34:31;12.02;;;3.58;;
61104;SDS011;46987;32.638;-115.438;2023-06-10T12:36:58;12.57;;;3.88;;
61104;SDS011;46987;32.638;-115.438;2023-06-10T12:39:26;13.65;;;4.10;;
61104;SDS011;46987;32.638;-115.438;2023-06-10T12:41:52;13.68;;;3.58;;
61104;SDS011;46987;32.638;-115.438;2023-06-10T12:44:28;14.23;;;4.72;;
61104;SDS011;46987;32.638;-115.438;2023-06-10T12:46:54;11.88;;;4.47;;
61104;SDS011;46987;32.638;-115.438;2023-06-10T12:49:21;15.93;;;5.32;;
61104;SDS011;46987;32.638;-115.438;2023-06-10T12:51:48;15.43;;;6.50;;
61104;SDS011;46987;32.638;-115.438;2023-06-10T12:54:14;22.55;;;10.98;;
61104;SDS011;46987;32.638;-115.438;2023-06-10T12:56:43;25.67;;;12.93;;
61104;SDS011;46987;32.638;-115.438;2023-06-10T12:59:09;29.08;;;16.95;;
61104;SDS011;46987;32.638;-115.438;2023-06-10T13:01:37;30.52;;;19.05;;
61104;SDS011;46987;32.638;-115.438;2023-06-10T13:04:04;24.73;;;15.40;;
61104;SDS011;46987;32.638;-115.438;2023-06-10T13:06:32;25.90;;;14.52;;
61104;SDS011;46987;32.638;-115.438;2023-06-10T13:09:02;21.40;;;11.80;;
61104;SDS011;46987;32.638;-115.438;2023-06-10T13:11:29;29.38;;;11.38;;
61104;SDS011;46987;32.638;-115.438;2023-06-10T13:13:57;20.65;;;10.50;;
61104;SDS011;46987;32.638;-115.438;2023-06-10T13:16:24;26.77;;;11.02;;
61104;SDS011;46987;32.638;-115.438;2023-06-10T13:18:52;20.80;;;9.07;;
61104;SDS011;46987;32.638;-115.438;2023-06-10T13:21:19;16.15;;;8.80;;
61104;SDS011;46987;32.638;-115.438;2023-06-10T13:23:46;22.10;;;8.55;;
61104;SDS011;46987;32.638;-115.438;2023-06-10T13:26:17;25.38;;;7.20;;
61104;SDS011;46987;32.638;-115.438;2023-06-10T13:28:44;15.75;;;6.53;;
61104;SDS011;46987;32.638;-115.438;2023-06-10T13:31:12;18.35;;;6.22;;
61104;SDS011;46987;32.638;-115.438;2023-06-10T13:33:38;17.95;;;6.03;;
61104;SDS011;46987;32.638;-115.438;2023-06-10T13:36:06;20.42;;;6.15;;
61104;SDS011;46987;32.638;-115.438;2023-06-10T13:38:32;20.05;;;5.85;;
61104;SDS011;46987;32.638;-115.438;2023-06-10T13:40:59;17.58;;;5.25;;
61104;SDS011;46987;32.638;-115.438;2023-06-10T13:43:25;21.85;;;5.72;;
61104;SDS011;46987;32.638;-115.438;2023-06-10T13:45:52;17.60;;;4.78;;
61104;SDS011;46987;32.638;-115.438;2023-06-10T13:48:20;12.18;;;4.13;;
61104;SDS011;46987;32.638;-115.438;2023-06-10T13:50:47;14.68;;;4.35;;
61104;SDS011;46987;32.638;-115.438;2023-06-10T13:53:13;12.48;;;4.57;;
61104;SDS011;46987;32.638;-115.438;2023-06-10T13:55:41;16.08;;;4.70;;
61104;SDS011;46987;32.638;-115.438;2023-06-10T13:58:07;14.93;;;4.80;;
61104;SDS011;46987;32.638;-115.438;2023-06-10T14:00:34;11.75;;;4.10;;
61104;SDS011;46987;32.638;-115.438;2023-06-10T14:03:00;23.85;;;4.93;;
61104;SDS011;46987;32.638;-115.438;2023-06-10T14:05:30;13.02;;;3.17;;
61104;SDS011;46987;32.638;-115.438;2023-06-10T14:07:57;11.02;;;2.97;;